createdAt,value
2023-01-21T00:01:58.230Z,17.33
2023-01-21T00:04:00.373Z,13.47
2023-01-21T00:06:03.067Z,16.47
2023-01-21T00:08:05.171Z,15.27
2023-01-21T00:10:07.366Z,16.77
2023-01-21T00:12:09.462Z,17.13
2023-01-21T00:14:12.033Z,15.63
2023-01-21T00:16:14.870Z,15.57
2023-01-21T00:18:16.851Z,13.47
2023-01-21T00:20:19.310Z,14.47
2023-01-21T00:22:21.575Z,12.80
2023-01-21T00:24:24.618Z,13.40
2023-01-21T00:26:26.730Z,13.63
2023-01-21T00:28:30.538Z,15.57
2023-01-21T00:30:32.694Z,12.50
2023-01-21T00:32:34.710Z,11.13
2023-01-21T00:34:36.775Z,11.43
2023-01-21T00:36:41.894Z,11.47
2023-01-21T00:38:44.555Z,11.33
2023-01-21T00:40:46.580Z,9.43
2023-01-21T00:42:48.983Z,10.10
2023-01-21T00:44:51.106Z,8.47
2023-01-21T00:46:53.035Z,11.20
2023-01-21T00:48:56.209Z,10.93
2023-01-21T00:51:01.484Z,10.60
2023-01-21T00:53:03.566Z,9.10
2023-01-21T00:55:06.710Z,9.17
2023-01-21T00:57:09.273Z,8.17
2023-01-21T00:59:11.512Z,9.87
2023-01-21T01:01:17.173Z,10.17
2023-01-21T01:03:19.517Z,10.93
2023-01-21T01:05:22.573Z,10.07
2023-01-21T01:07:24.554Z,8.23
2023-01-21T01:09:26.697Z,9.70
2023-01-21T01:11:29.223Z,11.37
2023-01-21T01:13:33.042Z,8.87
2023-01-21T01:15:35.028Z,10.27
2023-01-21T01:17:37.030Z,11.27
2023-01-21T01:19:39.458Z,11.50
2023-01-21T01:21:41.321Z,12.73
2023-01-21T01:23:44.031Z,13.57
2023-01-21T01:26:06.277Z,11.10
2023-01-21T01:28:08.328Z,9.37
2023-01-21T01:30:11.091Z,12.13
2023-01-21T01:32:16.070Z,19.80
2023-01-21T01:34:18.672Z,17.53
2023-01-21T01:36:23.783Z,13.93
2023-01-21T01:38:25.967Z,14.03
2023-01-21T01:40:33.119Z,12.40
2023-01-21T01:42:35.121Z,12.30
2023-01-21T01:45:06.289Z,13.57
2023-01-21T01:47:08.244Z,13.30
2023-01-21T01:49:17.390Z,16.30
2023-01-21T01:51:26.480Z,17.77
2023-01-21T01:53:31.036Z,17.00
2023-01-21T01:55:35.780Z,16.20
2023-01-21T01:57:41.194Z,16.17
2023-01-21T01:59:43.807Z,17.37
2023-01-21T02:01:45.941Z,15.90
2023-01-21T02:03:56.982Z,17.43
2023-01-21T02:05:59.877Z,18.40
2023-01-21T02:08:02.307Z,14.03
2023-01-21T02:10:04.488Z,12.17
2023-01-21T02:12:07.474Z,12.27
2023-01-21T02:14:10.091Z,11.77
2023-01-21T02:16:33.519Z,11.97
2023-01-21T02:19:02.486Z,9.63
2023-01-21T02:21:25.919Z,8.83
2023-01-21T02:23:54.024Z,7.90
2023-01-21T02:26:26.910Z,8.70
2023-01-21T02:28:28.870Z,11.07
2023-01-21T02:31:02.276Z,10.97
2023-01-21T02:33:29.562Z,9.63
2023-01-21T02:35:43.428Z,9.80
2023-01-21T02:38:21.393Z,11.00
2023-01-21T02:40:29.326Z,8.93
2023-01-21T02:42:31.293Z,9.33
2023-01-21T02:44:39.221Z,9.10
2023-01-21T02:46:56.110Z,7.77
2023-01-21T02:49:11.893Z,13.57
2023-01-21T02:51:13.841Z,10.60
2023-01-21T02:53:36.613Z,17.43
2023-01-21T02:55:39.582Z,17.83
2023-01-21T02:57:56.839Z,23.37
2023-01-21T03:00:00.973Z,28.83
2023-01-21T03:02:21.067Z,28.60
2023-01-21T03:04:35.259Z,15.90
2023-01-21T03:07:02.640Z,18.90
2023-01-21T03:09:27.279Z,12.77
2023-01-21T03:11:29.808Z,10.63
2023-01-21T03:13:57.785Z,9.63
2023-01-21T03:16:18.494Z,10.77
2023-01-21T03:18:30.532Z,9.90
2023-01-21T03:20:37.866Z,10.50
2023-01-21T03:22:40.979Z,10.97
2023-01-21T03:24:46.941Z,10.60
2023-01-21T03:26:52.661Z,11.10
2023-01-21T03:29:01.095Z,10.47
2023-01-21T03:31:18.495Z,11.50
2023-01-21T03:33:22.256Z,18.07
2023-01-21T03:35:37.897Z,32.80
2023-01-21T03:38:01.183Z,53.03
2023-01-21T03:40:28.694Z,43.83
2023-01-21T03:42:31.351Z,49.13
2023-01-21T03:44:34.225Z,55.20
2023-01-21T03:47:05.488Z,69.60
2023-01-21T03:49:21.095Z,78.80
2023-01-21T03:51:33.155Z,97.00
2023-01-21T03:53:35.597Z,92.83
2023-01-21T03:55:37.692Z,122.63
2023-01-21T03:57:39.971Z,100.63
2023-01-21T03:59:42.476Z,96.03
2023-01-21T04:01:47.109Z,98.70
2023-01-21T04:03:49.779Z,81.77
2023-01-21T04:05:52.172Z,92.47
2023-01-21T04:07:54.607Z,77.60
2023-01-21T04:09:56.552Z,126.13
2023-01-21T04:12:02.799Z,79.33
2023-01-21T04:14:04.909Z,61.23
2023-01-21T04:16:07.519Z,100.87
2023-01-21T04:18:09.625Z,70.47
2023-01-21T04:20:12.392Z,61.10
2023-01-21T04:22:14.285Z,57.47
2023-01-21T04:24:16.468Z,44.97
2023-01-21T04:26:18.522Z,58.27
2023-01-21T04:28:20.681Z,53.97
2023-01-21T04:30:22.803Z,36.53
2023-01-21T04:32:24.828Z,49.97
2023-01-21T04:34:27.246Z,29.77
2023-01-21T04:36:29.383Z,26.57
2023-01-21T04:38:31.695Z,25.33
2023-01-21T04:40:33.759Z,26.73
2023-01-21T04:42:35.844Z,25.47
2023-01-21T04:44:37.792Z,39.10
2023-01-21T04:46:40.051Z,60.17
2023-01-21T04:48:42.376Z,57.63
2023-01-21T04:50:44.332Z,48.50
2023-01-21T04:52:46.310Z,49.63
2023-01-21T04:54:48.510Z,53.27
2023-01-21T04:56:50.526Z,46.00
2023-01-21T04:58:53.190Z,46.00
2023-01-21T05:00:55.734Z,32.93
2023-01-21T05:02:58.072Z,23.20
2023-01-21T05:05:00.129Z,26.57
2023-01-21T05:07:04.412Z,48.93
2023-01-21T05:09:06.434Z,57.87
2023-01-21T05:11:09.772Z,67.10
2023-01-21T05:13:11.829Z,57.17
2023-01-21T05:19:06.963Z,42.40
2023-01-21T05:21:09.134Z,29.73
2023-01-21T05:23:12.886Z,21.90
2023-01-21T05:25:16.286Z,12.73
2023-01-21T05:27:20.117Z,10.90
2023-01-21T05:29:22.531Z,10.37
2023-01-21T05:31:25.390Z,9.60
2023-01-21T05:33:34.993Z,11.27
2023-01-21T05:35:37.253Z,9.50
2023-01-21T05:37:39.285Z,7.70
2023-01-21T05:39:41.479Z,6.63
2023-01-21T05:41:43.516Z,7.40
2023-01-21T05:43:45.820Z,8.83
2023-01-21T05:45:47.842Z,8.80
2023-01-21T05:47:50.050Z,8.40
2023-01-21T05:49:51.881Z,7.57
2023-01-21T05:51:54.236Z,13.57
2023-01-21T05:53:56.333Z,14.63
2023-01-21T05:55:58.573Z,10.10
2023-01-21T05:58:01.183Z,8.20
2023-01-21T06:00:04.770Z,6.33
2023-01-21T06:02:06.802Z,5.33
2023-01-21T06:04:09.089Z,4.93
2023-01-21T06:06:11.150Z,5.47
2023-01-21T06:08:13.365Z,5.53
2023-01-21T06:10:15.845Z,4.87
2023-01-21T06:12:17.749Z,16.77
2023-01-21T06:14:19.467Z,26.43
2023-01-21T06:16:21.254Z,35.90
2023-01-21T06:18:23.970Z,25.20
2023-01-21T06:20:25.936Z,22.23
2023-01-21T06:22:27.715Z,28.40
2023-01-21T06:24:29.591Z,24.77
2023-01-21T06:26:31.301Z,21.77
2023-01-21T06:28:33.538Z,20.03
2023-01-21T06:30:35.280Z,20.13
2023-01-21T06:32:37.742Z,22.23
2023-01-21T06:34:39.625Z,20.20
2023-01-21T06:36:42.785Z,18.97
2023-01-21T06:38:44.570Z,46.73
2023-01-21T06:40:46.353Z,46.87
2023-01-21T06:42:49.466Z,44.73
2023-01-21T06:44:51.275Z,46.30
2023-01-21T06:47:00.628Z,67.43
2023-01-21T06:49:02.910Z,38.33
2023-01-21T06:51:04.876Z,32.13
2023-01-21T06:53:06.689Z,25.27
2023-01-21T06:55:09.362Z,23.57
2023-01-21T06:57:11.335Z,20.23
2023-01-21T06:59:13.454Z,17.10
2023-01-21T07:01:15.193Z,29.03
2023-01-21T07:03:16.956Z,51.77
2023-01-21T07:05:20.690Z,73.63
2023-01-21T07:07:22.704Z,62.07
2023-01-21T07:09:24.504Z,56.00
2023-01-21T07:11:26.488Z,38.77
2023-01-21T07:13:28.250Z,24.37
2023-01-21T07:15:31.095Z,19.23
2023-01-21T07:17:32.959Z,16.70
2023-01-21T07:19:34.750Z,17.80
2023-01-21T07:21:36.559Z,18.40
2023-01-21T07:23:38.412Z,16.30
2023-01-21T07:25:40.178Z,15.20
2023-01-21T07:27:42.101Z,14.67
2023-01-21T07:29:44.290Z,15.10
2023-01-21T07:31:46.145Z,14.87
2023-01-21T07:33:47.948Z,13.10
2023-01-21T07:35:50.107Z,14.07
2023-01-21T07:37:51.895Z,27.30
2023-01-21T07:39:55.937Z,24.93
2023-01-21T07:41:57.727Z,31.30
2023-01-21T07:44:01.754Z,23.43
2023-01-21T07:46:03.722Z,17.67
2023-01-21T07:48:05.999Z,14.33
2023-01-21T07:50:08.871Z,17.07
2023-01-21T07:52:10.828Z,24.67
2023-01-21T07:54:13.497Z,28.93
2023-01-21T07:56:16.331Z,33.63
2023-01-21T07:58:18.123Z,26.30
2023-01-21T08:00:20.246Z,24.57
2023-01-21T08:02:22.349Z,28.23
2023-01-21T08:04:25.474Z,26.47
2023-01-21T08:06:27.467Z,20.13
2023-01-21T08:08:29.265Z,17.03
2023-01-21T08:10:30.965Z,17.33
2023-01-21T08:12:32.825Z,19.20
2023-01-21T08:14:35.213Z,14.00
2023-01-21T08:16:37.015Z,13.37
2023-01-21T08:18:38.718Z,13.87
2023-01-21T08:20:40.467Z,12.13
2023-01-21T08:22:42.227Z,15.00
2023-01-21T08:24:44.142Z,14.93
2023-01-21T08:26:45.945Z,16.50
2023-01-21T08:28:47.715Z,17.83
2023-01-21T08:30:49.709Z,16.03
2023-01-21T08:32:51.658Z,13.33
2023-01-21T08:34:53.492Z,13.50
2023-01-21T08:36:55.574Z,13.17
2023-01-21T08:39:05.745Z,11.43
2023-01-21T08:41:07.523Z,11.20
2023-01-21T08:43:09.304Z,12.10
2023-01-21T08:45:12.350Z,14.47
2023-01-21T08:47:15.318Z,18.57
2023-01-21T08:49:17.151Z,18.40
2023-01-21T08:51:19.170Z,18.33
2023-01-21T08:53:21.666Z,17.97
2023-01-21T08:55:27.742Z,14.07
2023-01-21T08:57:29.538Z,12.03
2023-01-21T08:59:31.376Z,16.47
2023-01-21T09:01:33.701Z,24.20
2023-01-21T09:03:35.993Z,30.00
2023-01-21T09:05:37.736Z,37.83
2023-01-21T09:07:39.532Z,39.23
2023-01-21T09:09:41.336Z,39.70
2023-01-21T09:11:43.344Z,38.10
2023-01-21T09:13:45.725Z,47.40
2023-01-21T09:15:47.482Z,56.03
2023-01-21T09:17:49.317Z,33.83
2023-01-21T09:19:51.072Z,22.50
2023-01-21T09:21:54.383Z,17.60
2023-01-21T09:23:56.730Z,17.83
2023-01-21T09:26:01.323Z,16.87
2023-01-21T09:28:03.123Z,13.20
2023-01-21T09:30:05.874Z,13.00
2023-01-21T09:32:07.831Z,14.03
2023-01-21T09:34:11.782Z,12.37
2023-01-21T09:36:16.380Z,12.10
2023-01-21T09:38:18.161Z,11.37
2023-01-21T09:40:20.097Z,12.03
2023-01-21T09:42:27.861Z,12.70
2023-01-21T09:44:40.023Z,12.10
2023-01-21T09:46:44.714Z,11.73
2023-01-21T09:48:49.634Z,12.03
2023-01-21T09:50:52.538Z,10.60
2023-01-21T09:53:04.776Z,13.07
2023-01-21T09:55:17.854Z,16.07
2023-01-21T09:57:51.354Z,19.73
2023-01-21T10:00:15.598Z,18.90
2023-01-21T10:02:53.749Z,19.90
2023-01-21T10:05:18.391Z,18.63
2023-01-21T10:07:48.096Z,19.23
2023-01-21T10:10:07.859Z,24.87
2023-01-21T10:12:33.790Z,24.93
2023-01-21T10:14:48.861Z,21.33
2023-01-21T10:16:59.552Z,18.23
2023-01-21T10:19:04.055Z,20.50
2023-01-21T10:21:16.344Z,17.50
2023-01-21T10:23:33.910Z,14.90
2023-01-21T10:25:37.498Z,21.53
2023-01-21T10:27:42.551Z,24.27
2023-01-21T10:29:46.789Z,20.33
2023-01-21T10:31:59.388Z,22.57
2023-01-21T10:34:14.207Z,26.00
2023-01-21T10:36:35.481Z,23.60
2023-01-21T10:38:47.830Z,25.47
2023-01-21T10:40:59.326Z,27.47
2023-01-21T10:43:16.870Z,31.97
2023-01-21T10:45:30.895Z,25.13
2023-01-21T10:47:55.100Z,19.63
2023-01-21T10:50:03.117Z,16.87
2023-01-21T10:52:11.444Z,23.87
2023-01-21T10:54:35.313Z,16.57
2023-01-21T10:57:22.140Z,21.17
2023-01-21T10:59:28.259Z,18.60
2023-01-21T11:01:34.820Z,24.27
2023-01-21T11:03:45.899Z,22.83
2023-01-21T11:05:49.963Z,34.43
2023-01-21T11:07:52.734Z,33.70
2023-01-21T11:09:54.623Z,58.97
2023-01-21T11:11:56.672Z,56.80
2023-01-21T11:13:58.872Z,47.37
2023-01-21T11:16:02.387Z,39.63
2023-01-21T11:18:35.752Z,27.83
2023-01-21T11:20:42.471Z,17.30
2023-01-21T11:22:46.327Z,15.90
2023-01-21T11:24:50.406Z,15.30
2023-01-21T11:26:53.782Z,12.17
2023-01-21T11:29:13.191Z,11.57
2023-01-21T11:31:23.360Z,12.63
2023-01-21T11:33:27.740Z,11.57
2023-01-21T11:35:30.405Z,10.23
2023-01-21T11:37:33.511Z,8.83
2023-01-21T11:39:40.015Z,16.10
2023-01-21T11:41:51.917Z,15.13
2023-01-21T11:44:16.664Z,22.97
2023-01-21T11:46:37.304Z,17.37
2023-01-21T11:48:40.279Z,22.77
2023-01-21T11:50:42.095Z,21.10
2023-01-21T11:52:44.061Z,17.00
2023-01-21T11:54:46.718Z,18.53
2023-01-21T11:57:00.579Z,14.50
2023-01-21T11:59:11.062Z,16.80
2023-01-21T12:01:22.086Z,19.50
2023-01-21T12:03:53.357Z,22.43
2023-01-21T12:05:55.266Z,18.30
2023-01-21T12:07:58.158Z,34.07
2023-01-21T12:10:13.059Z,44.10
2023-01-21T12:12:29.023Z,61.63
2023-01-21T12:14:55.932Z,28.00
2023-01-21T12:17:16.244Z,28.37
2023-01-21T12:19:36.138Z,28.53
2023-01-21T12:21:58.984Z,35.70
2023-01-21T12:24:19.550Z,24.00
2023-01-21T12:26:33.968Z,15.50
2023-01-21T12:28:56.021Z,12.30
2023-01-21T12:31:08.264Z,10.07
2023-01-21T12:33:13.761Z,9.63
2023-01-21T12:35:28.659Z,7.90
2023-01-21T12:37:38.494Z,10.50
2023-01-21T12:39:42.981Z,13.30
2023-01-21T12:41:51.010Z,17.77
2023-01-21T12:43:58.691Z,12.13
2023-01-21T12:46:04.252Z,8.40
2023-01-21T12:48:14.833Z,7.43
2023-01-21T12:50:22.681Z,8.97
2023-01-21T12:52:50.277Z,7.30
2023-01-21T12:55:12.055Z,12.67
2023-01-21T12:57:28.264Z,14.03
2023-01-21T12:59:43.827Z,12.13
2023-01-21T13:02:05.703Z,47.73
2023-01-21T13:04:22.789Z,27.67
2023-01-21T13:07:02.758Z,19.27
2023-01-21T13:09:31.453Z,18.90
2023-01-21T13:11:39.103Z,20.43
2023-01-21T13:13:56.564Z,35.23
2023-01-21T13:16:05.384Z,22.97
2023-01-21T13:18:20.170Z,22.47
2023-01-21T13:20:23.371Z,17.63
2023-01-21T13:22:34.150Z,13.57
2023-01-21T13:28:42.568Z,9.77
2023-01-21T13:31:08.502Z,11.47
2023-01-21T13:33:22.489Z,8.67
2023-01-21T13:35:33.245Z,7.57
2023-01-21T13:38:01.863Z,8.00
2023-01-21T13:40:28.939Z,5.30
2023-01-21T13:42:46.154Z,5.87
2023-01-21T13:44:54.908Z,6.57
2023-01-21T13:47:14.861Z,8.47
2023-01-21T13:49:35.672Z,41.47
2023-01-21T13:52:05.698Z,38.47
2023-01-21T13:54:19.851Z,25.10
2023-01-21T13:56:50.608Z,16.60
2023-01-21T13:59:11.849Z,18.07
2023-01-21T14:01:22.773Z,53.97
2023-01-21T14:03:30.778Z,58.47
2023-01-21T14:05:41.200Z,40.17
2023-01-21T14:07:49.695Z,27.90
2023-01-21T14:10:12.900Z,29.93
2023-01-21T14:12:36.308Z,33.90
2023-01-21T14:15:09.536Z,27.00
2023-01-21T14:17:14.639Z,33.70
2023-01-21T14:19:38.071Z,33.63
2023-01-21T14:22:04.552Z,32.23
2023-01-21T14:24:24.954Z,32.50
2023-01-21T14:26:39.612Z,28.43
2023-01-21T14:29:09.381Z,22.87
2023-01-21T14:31:24.024Z,33.97
2023-01-21T14:33:54.846Z,31.37
2023-01-21T14:36:18.017Z,24.53
2023-01-21T14:38:26.114Z,23.77
2023-01-21T14:40:33.601Z,22.97
2023-01-21T14:42:50.288Z,11.43
2023-01-21T14:44:52.764Z,9.97
2023-01-21T14:47:18.210Z,7.87
2023-01-21T14:49:40.076Z,7.53
2023-01-21T14:51:49.263Z,5.47
2023-01-21T14:54:01.617Z,6.27
2023-01-21T14:56:06.779Z,10.50
2023-01-21T14:58:23.337Z,15.20
2023-01-21T15:00:30.509Z,41.20
2023-01-21T15:02:42.137Z,25.03
2023-01-21T15:04:54.643Z,21.20
2023-01-21T15:07:01.223Z,23.80
2023-01-21T15:09:05.700Z,22.23
2023-01-21T15:11:19.813Z,14.53
2023-01-21T15:13:34.207Z,11.70
2023-01-21T15:15:48.187Z,8.53
2023-01-21T15:17:57.836Z,7.77
2023-01-21T15:20:40.411Z,27.93
2023-01-21T15:22:46.889Z,25.43
2023-01-21T15:25:14.613Z,21.57
2023-01-21T15:27:26.024Z,15.97
2023-01-21T15:29:39.016Z,11.80
2023-01-21T15:31:44.783Z,13.93
2023-01-21T15:33:57.961Z,15.33
2023-01-21T15:36:01.367Z,13.53
2023-01-21T15:38:17.663Z,14.10
2023-01-21T15:40:33.552Z,13.17
2023-01-21T15:42:41.452Z,12.67
2023-01-21T15:45:02.151Z,12.53
2023-01-21T15:47:22.669Z,10.87
2023-01-21T15:49:44.442Z,9.60
2023-01-21T15:52:17.187Z,11.83
2023-01-21T15:54:46.641Z,19.63
2023-01-21T15:56:51.237Z,20.83
2023-01-21T15:58:59.414Z,18.77
2023-01-21T16:01:25.961Z,14.33
2023-01-21T16:03:35.304Z,13.27
2023-01-21T16:05:59.236Z,12.00
2023-01-21T16:08:11.097Z,11.20
2023-01-21T16:10:41.727Z,11.57
2023-01-21T16:13:14.600Z,9.50
2023-01-21T16:15:39.793Z,9.57
2023-01-21T16:17:56.890Z,10.20
2023-01-21T16:20:01.990Z,10.80
2023-01-21T16:22:09.699Z,15.27
2023-01-21T16:24:19.630Z,24.57
2023-01-21T16:26:31.948Z,19.80
2023-01-21T16:28:46.369Z,13.87
2023-01-21T16:30:54.642Z,19.13
2023-01-21T16:33:16.445Z,19.60
2023-01-21T16:35:18.787Z,19.27
2023-01-21T16:37:24.758Z,23.57
2023-01-21T16:39:27.011Z,19.43
2023-01-21T16:41:29.218Z,15.13
2023-01-21T16:43:34.117Z,17.57
2023-01-21T16:45:37.030Z,20.20
2023-01-21T16:47:40.257Z,19.00
2023-01-21T16:57:33.444Z,17.87
2023-01-21T16:59:41.076Z,18.70
2023-01-21T17:01:43.322Z,20.17
2023-01-21T17:03:47.774Z,29.20
2023-01-21T17:05:52.264Z,22.23
2023-01-21T17:08:01.108Z,22.27
2023-01-21T17:10:07.239Z,19.23
2023-01-21T17:12:22.007Z,23.30
2023-01-21T17:14:27.864Z,39.30
2023-01-21T17:16:34.670Z,40.37
2023-01-21T17:18:43.210Z,39.40
2023-01-21T17:20:53.306Z,34.47
2023-01-21T17:22:55.557Z,33.73
2023-01-21T17:25:24.730Z,32.63
2023-01-21T17:27:27.725Z,31.07
2023-01-21T17:29:34.265Z,31.67
2023-01-21T17:31:42.569Z,33.57
2023-01-21T17:33:45.422Z,33.93
2023-01-21T17:36:09.166Z,34.87
2023-01-21T17:38:30.368Z,33.73
2023-01-21T17:41:09.269Z,30.40
2023-01-21T17:43:25.925Z,25.50
2023-01-21T17:45:32.234Z,29.10
2023-01-21T17:47:56.050Z,28.00
2023-01-21T17:50:21.721Z,43.77
2023-01-21T17:52:24.511Z,32.57
2023-01-21T17:54:29.457Z,28.00
2023-01-21T17:56:36.517Z,48.27
2023-01-21T17:58:41.580Z,43.97
2023-01-21T18:00:45.615Z,27.40
2023-01-21T18:02:47.779Z,24.33
2023-01-21T18:04:49.905Z,26.57
2023-01-21T18:06:53.478Z,28.33
2023-01-21T18:08:57.542Z,29.33
2023-01-21T18:10:59.798Z,25.63
2023-01-21T18:13:02.474Z,25.80
2023-01-21T18:15:07.972Z,30.33
2023-01-21T18:17:18.835Z,27.20
2023-01-21T18:19:36.663Z,33.10
2023-01-21T18:21:38.634Z,30.47
2023-01-21T18:23:40.815Z,16.80
2023-01-21T18:25:44.986Z,13.67
2023-01-21T18:27:54.824Z,14.93
2023-01-21T18:29:58.220Z,42.87
2023-01-21T18:32:00.357Z,55.07
2023-01-21T18:34:02.875Z,30.07
2023-01-21T18:36:05.565Z,22.77
2023-01-21T18:38:19.568Z,19.83
2023-01-21T18:40:23.163Z,19.67
2023-01-21T18:42:25.902Z,20.23
2023-01-21T18:44:27.839Z,20.97
2023-01-21T18:46:29.969Z,25.47
2023-01-21T18:48:33.851Z,26.03
2023-01-21T18:50:36.175Z,29.43
2023-01-21T18:52:38.259Z,32.00
2023-01-21T18:54:40.845Z,40.47
2023-01-21T18:56:43.830Z,32.57
2023-01-21T18:58:45.948Z,30.80
2023-01-21T19:00:48.592Z,28.10
2023-01-21T19:02:53.798Z,28.67
2023-01-21T19:04:56.008Z,29.90
2023-01-21T19:06:58.302Z,23.50
2023-01-21T19:09:02.546Z,22.67
2023-01-21T19:11:04.928Z,19.50
2023-01-21T19:13:08.205Z,21.07
2023-01-21T19:15:21.613Z,23.53
2023-01-21T19:17:26.534Z,19.30
2023-01-21T19:19:28.563Z,26.47
2023-01-21T19:21:30.730Z,42.90
2023-01-21T19:23:32.784Z,32.47
2023-01-21T19:25:34.782Z,29.90
2023-01-21T19:27:41.159Z,42.13
2023-01-21T19:29:43.660Z,47.03
2023-01-21T19:31:45.651Z,40.90
2023-01-21T19:33:47.982Z,44.00
2023-01-21T19:35:52.797Z,42.23
2023-01-21T19:37:55.225Z,39.10
2023-01-21T19:39:57.248Z,43.93
2023-01-21T19:42:07.928Z,40.23
2023-01-21T19:44:10.549Z,41.10
2023-01-21T19:46:13.680Z,44.33
2023-01-21T19:48:18.188Z,29.20
2023-01-21T19:50:22.973Z,23.93
2023-01-21T19:52:24.929Z,15.30
2023-01-21T19:54:27.207Z,16.67
2023-01-21T19:56:29.328Z,23.43
2023-01-21T19:58:32.832Z,29.83
2023-01-21T20:00:36.298Z,29.83
2023-01-21T20:02:38.368Z,26.80
2023-01-21T20:04:40.627Z,35.77
2023-01-21T20:06:44.830Z,32.07
2023-01-21T20:08:47.674Z,30.80
2023-01-21T20:10:50.131Z,51.30
2023-01-21T20:12:53.146Z,39.37
2023-01-21T20:14:55.162Z,54.93
2023-01-21T20:16:57.330Z,32.80
2023-01-21T20:19:02.144Z,22.47
2023-01-21T20:21:07.282Z,13.07
2023-01-21T20:23:15.041Z,10.97
2023-01-21T20:25:21.485Z,10.77
2023-01-21T20:27:23.446Z,11.60
2023-01-21T20:29:27.199Z,10.90
2023-01-21T20:31:30.403Z,10.97
2023-01-21T20:33:33.080Z,11.00
2023-01-21T20:35:35.068Z,10.80
2023-01-21T20:37:37.388Z,12.53
2023-01-21T20:39:39.493Z,11.70
2023-01-21T20:41:43.485Z,17.13
2023-01-21T20:43:46.090Z,17.43
2023-01-21T20:45:49.549Z,16.20
2023-01-21T20:47:54.947Z,20.23
2023-01-21T20:49:59.577Z,17.30
2023-01-21T20:52:01.587Z,14.33
2023-01-21T20:54:04.440Z,13.23
2023-01-21T20:56:18.065Z,13.60
2023-01-21T20:58:22.338Z,11.57
2023-01-21T21:00:31.465Z,10.70
2023-01-21T21:02:33.699Z,13.63
2023-01-21T21:04:35.688Z,16.27
2023-01-21T21:06:37.873Z,20.67
2023-01-21T21:08:40.394Z,19.87
2023-01-21T21:10:43.355Z,17.83
2023-01-21T21:12:45.699Z,18.70
2023-01-21T21:14:47.941Z,15.70
2023-01-21T21:16:50.334Z,12.87
2023-01-21T21:18:52.628Z,11.90
2023-01-21T21:20:54.906Z,14.90
2023-01-21T21:22:56.920Z,11.93
2023-01-21T21:24:58.934Z,12.43
2023-01-21T21:27:01.369Z,11.73
2023-01-21T21:29:03.664Z,10.87
2023-01-21T21:31:06.049Z,10.50
2023-01-21T21:33:15.479Z,10.80
2023-01-21T21:35:29.862Z,10.20
2023-01-21T21:37:31.999Z,10.80
2023-01-21T21:39:34.257Z,11.07
2023-01-21T21:41:55.006Z,12.97
2023-01-21T21:43:57.021Z,13.27
2023-01-21T21:46:26.864Z,14.70
2023-01-21T21:48:38.840Z,18.03
2023-01-21T21:50:41.119Z,26.73
2023-01-21T21:52:43.201Z,63.80
2023-01-21T21:54:45.695Z,51.47
2023-01-21T21:56:50.959Z,49.50
2023-01-21T21:58:53.198Z,46.40
2023-01-21T22:00:55.678Z,45.33
2023-01-21T22:03:02.395Z,46.80
2023-01-21T22:05:07.631Z,37.23
2023-01-21T22:07:09.926Z,48.17
2023-01-21T22:09:13.212Z,49.67
2023-01-21T22:11:17.924Z,40.17
2023-01-21T22:13:20.366Z,43.23
2023-01-21T22:15:22.427Z,36.97
2023-01-21T22:17:24.525Z,28.40
2023-01-21T22:19:29.565Z,53.73
2023-01-21T22:21:34.159Z,63.33
2023-01-21T22:23:39.396Z,80.27
2023-01-21T22:25:41.555Z,80.73
2023-01-21T22:27:44.658Z,59.73
2023-01-21T22:29:46.933Z,53.37
2023-01-21T22:31:49.061Z,56.20
2023-01-21T22:33:51.932Z,51.37
2023-01-21T22:35:56.735Z,49.33
2023-01-21T22:37:58.820Z,36.13
2023-01-21T22:40:00.792Z,23.23
2023-01-21T22:42:05.040Z,30.70
2023-01-21T22:44:07.171Z,26.57
2023-01-21T22:46:12.309Z,27.77
2023-01-21T22:48:14.781Z,14.17
2023-01-21T22:50:17.343Z,20.37
2023-01-21T22:52:19.363Z,26.40
2023-01-21T22:54:21.514Z,32.87
2023-01-21T22:56:39.915Z,35.20
2023-01-21T22:58:47.621Z,33.63
2023-01-21T23:00:50.046Z,26.47
2023-01-21T23:02:52.016Z,28.90
2023-01-21T23:04:54.027Z,23.23
2023-01-21T23:06:56.487Z,28.77
2023-01-21T23:08:58.511Z,20.20
2023-01-21T23:11:12.186Z,9.37
2023-01-21T23:13:15.352Z,8.90
2023-01-21T23:15:17.461Z,18.07
2023-01-21T23:17:19.533Z,16.33
2023-01-21T23:19:21.606Z,16.07
2023-01-21T23:21:23.738Z,15.37
2023-01-21T23:31:26.195Z,20.80
2023-01-21T23:33:28.372Z,28.10
2023-01-21T23:35:31.512Z,24.33
2023-01-21T23:37:33.937Z,15.20
2023-01-21T23:39:36.103Z,13.37
2023-01-21T23:41:38.318Z,11.00
2023-01-21T23:43:41.313Z,11.47
2023-01-21T23:45:43.391Z,9.10
2023-01-21T23:47:47.503Z,13.00
2023-01-21T23:49:49.771Z,102.70
2023-01-21T23:51:52.012Z,119.10
2023-01-21T23:53:54.081Z,88.07
2023-01-21T23:56:09.415Z,68.47
2023-01-21T23:58:11.477Z,43.43
